Time;durP1;ratioP1;P1;durP2;ratioP2;P2;SDS_P1;SDS_P2;PMS_P1;PMS_P2;Temp;Humidity;BMP_temperature;BMP_pressure;BME280_temperature;BME280_humidity;BME280_pressure;Samples;Min_cycle;Max_cycle;Signal;HPM_P1;HPM_P2
2024/03/23 00:01:01;;;;;;;;;;;;;;;13.87;54.38;99174.84;4149566;28;20456;-70
2024/03/23 00:03:02;;;;;;;;;;;;;;;13.84;54.84;99177.88;4148867;28;20332;-69
2024/03/23 00:05:03;;;;;;;;;;;;;;;13.77;54.77;99170.75;4149276;28;19909;-70
2024/03/23 00:07:04;;;;;;;;;;;;;;;13.79;54.95;99166.03;4131545;28;19917;-69
2024/03/23 00:09:07;;;;;;;;;;;;;;;13.75;54.81;99168.28;4162740;28;19923;-69
2024/03/23 00:11:08;;;;;;;;;;;;;;;13.70;54.93;99159.91;4164352;28;19909;-69
2024/03/23 00:13:08;;;;;;;;;;;;;;;13.76;54.93;99153.81;4164803;28;19932;-68
2024/03/23 00:15:09;;;;;;;;;;;;;;;13.75;54.97;99151.31;4163754;28;19955;-69
2024/03/23 00:17:11;;;;;;;;;;;;;;;13.89;54.60;99142.41;4165419;28;19909;-69
2024/03/23 00:19:12;;;;;;;;;;;;;;;14.06;54.26;99143.03;4165645;28;19909;-68
2024/03/23 00:21:12;;;;;;;;;;;;;;;14.23;53.70;99132.03;4165401;28;20035;-69
2024/03/23 00:23:13;;;;;;;;;;;;;;;14.30;53.47;99123.00;4166276;28;20349;-68
2024/03/23 00:25:14;;;;;;;;;;;;;;;14.32;53.32;99112.88;4165580;28;19999;-69
2024/03/23 00:27:16;;;;;;;;;;;;;;;14.32;53.41;99114.75;4164901;28;19955;-70
2024/03/23 00:29:17;;;;;;;;;;;;;;;14.23;53.29;99107.84;4163973;28;19913;-69
2024/03/23 00:31:19;;;;;;;;;;;;;;;14.21;53.45;99102.66;4165395;28;19909;-69
2024/03/23 00:33:20;;;;;;;;;;;;;;;14.25;53.37;99100.41;4164928;28;19909;-69
2024/03/23 00:35:21;;;;;;;;;;;;;;;14.33;53.27;99097.59;4164971;28;19980;-69
2024/03/23 00:37:22;;;;;;;;;;;;;;;14.43;52.79;99087.34;4163394;28;19909;-69
2024/03/23 00:39:22;;;;;;;;;;;;;;;14.39;53.02;99080.69;4181307;28;19909;-69
2024/03/23 00:41:23;;;;;;;;;;;;;;;14.28;53.02;99083.88;4181192;28;19919;-69
2024/03/23 00:43:24;;;;;;;;;;;;;;;14.32;52.90;99087.88;4163293;28;20268;-69
2024/03/23 00:45:25;;;;;;;;;;;;;;;14.24;53.12;99085.31;4179783;28;19919;-70
2024/03/23 00:47:26;;;;;;;;;;;;;;;14.25;52.92;99076.22;4181045;28;20348;-70
2024/03/23 00:49:27;;;;;;;;;;;;;;;14.24;52.89;99069.19;4180988;28;19921;-70
2024/03/23 00:51:28;;;;;;;;;;;;;;;14.26;52.85;99072.53;4163716;28;19908;-69
2024/03/23 00:53:29;;;;;;;;;;;;;;;14.27;52.74;99071.47;4180117;28;19909;-69
2024/03/23 00:55:29;;;;;;;;;;;;;;;14.16;53.10;99072.81;4181134;28;19996;-70
2024/03/23 00:57:29;;;;;;;;;;;;;;;14.17;53.23;99061.88;4180026;28;20276;-69
2024/03/23 00:59:30;;;;;;;;;;;;;;;14.16;53.12;99073.69;4182510;28;19908;-69
2024/03/23 01:01:31;;;;;;;;;;;;;;;14.08;53.39;99063.03;4197233;28;19909;-70
2024/03/23 01:03:31;;;;;;;;;;;;;;;14.05;53.39;99063.44;4193000;28;19909;-70
2024/03/23 01:05:32;;;;;;;;;;;;;;;14.07;53.39;99069.44;4181372;28;19925;-69
2024/03/23 01:07:32;;;;;;;;;;;;;;;14.12;53.41;99060.81;4180041;28;20384;-70
2024/03/23 01:09:32;;;;;;;;;;;;;;;14.27;52.87;99058.03;4180378;28;20460;-69
2024/03/23 01:11:33;;;;;;;;;;;;;;;14.22;53.21;99049.72;4164007;28;20392;-70
2024/03/23 01:13:33;;;;;;;;;;;;;;;13.97;53.71;99050.94;4186436;28;19931;-72
2024/03/23 01:15:33;;;;;;;;;;;;;;;13.86;53.83;99046.91;4195245;28;19909;-69
2024/03/23 01:17:34;;;;;;;;;;;;;;;13.79;54.28;99045.16;4195515;28;19900;-70
2024/03/23 01:19:35;;;;;;;;;;;;;;;13.78;54.28;99041.66;4195671;28;19918;-69
2024/03/23 01:21:37;;;;;;;;;;;;;;;13.65;54.61;99047.69;4196036;28;19911;-70
2024/03/23 01:23:37;;;;;;;;;;;;;;;13.71;54.75;99046.09;4184131;28;19959;-70
2024/03/23 01:25:37;;;;;;;;;;;;;;;13.81;54.54;99032.38;4180422;28;19909;-69
2024/03/23 01:27:38;;;;;;;;;;;;;;;13.77;54.41;99031.94;4180014;28;19912;-69
2024/03/23 01:29:38;;;;;;;;;;;;;;;13.78;54.32;99030.91;4163011;28;20299;-69
2024/03/23 01:31:39;;;;;;;;;;;;;;;13.73;54.23;99020.75;4182142;28;19947;-69
2024/03/23 01:33:39;;;;;;;;;;;;;;;13.77;53.74;99018.50;4175982;28;19923;-70
2024/03/23 01:35:39;;;;;;;;;;;;;;;13.97;52.67;99004.44;4173080;28;20422;-69
2024/03/23 01:37:40;;;;;;;;;;;;;;;13.95;52.26;99006.47;4161767;28;19916;-69
2024/03/23 01:39:40;;;;;;;;;;;;;;;14.00;52.04;99004.03;4173273;28;19909;-69
2024/03/23 01:41:42;;;;;;;;;;;;;;;13.99;51.77;99007.75;4182755;28;19920;-69
2024/03/23 01:43:43;;;;;;;;;;;;;;;14.11;51.36;99006.22;4180263;28;19953;-69
2024/03/23 01:45:43;;;;;;;;;;;;;;;14.11;51.40;99011.59;4180012;28;19952;-69
2024/03/23 01:47:45;;;;;;;;;;;;;;;14.17;51.03;99001.94;4181715;28;19974;-69
2024/03/23 01:49:45;;;;;;;;;;;;;;;14.09;51.25;99005.56;4180922;28;19909;-69
2024/03/23 01:51:45;;;;;;;;;;;;;;;14.10;51.26;98988.41;4180645;28;20142;-69
2024/03/23 01:53:46;;;;;;;;;;;;;;;14.20;51.10;98980.88;4163080;28;19913;-69
2024/03/23 01:55:47;;;;;;;;;;;;;;;14.22;51.02;98990.59;4173891;28;20007;-70
2024/03/23 01:57:47;;;;;;;;;;;;;;;14.10;50.83;98980.38;4179477;28;19913;-69
2024/03/23 01:59:48;;;;;;;;;;;;;;;14.25;50.68;98968.72;4179878;28;19908;-70
2024/03/23 02:01:48;;;;;;;;;;;;;;;14.08;50.98;98962.78;4180003;28;19967;-69
2024/03/23 02:03:49;;;;;;;;;;;;;;;14.16;50.99;98960.78;4179570;28;19909;-69
2024/03/23 02:05:49;;;;;;;;;;;;;;;14.01;51.05;98966.25;4179735;28;20279;-69
2024/03/23 02:07:50;;;;;;;;;;;;;;;14.13;51.11;98966.53;4155785;28;19921;-70
2024/03/23 02:09:51;;;;;;;;;;;;;;;14.00;50.93;98967.28;4145668;28;20328;-69
2024/03/23 02:11:51;;;;;;;;;;;;;;;14.09;51.15;98967.94;4145577;28;20435;-69
2024/03/23 02:13:52;;;;;;;;;;;;;;;14.08;51.19;98965.47;4156691;28;20320;-69
2024/03/23 02:15:52;;;;;;;;;;;;;;;14.18;51.16;98969.47;4162845;28;19923;-69
2024/03/23 02:17:53;;;;;;;;;;;;;;;14.19;51.14;98952.31;4163143;28;19909;-69
2024/03/23 02:19:53;;;;;;;;;;;;;;;14.04;51.32;98948.91;4163539;28;20479;-69
2024/03/23 02:21:53;;;;;;;;;;;;;;;13.95;51.64;98950.88;4162913;28;19916;-69
2024/03/23 02:23:54;;;;;;;;;;;;;;;13.99;51.41;98951.31;4163406;28;19948;-69
2024/03/23 02:25:54;;;;;;;;;;;;;;;13.95;51.48;98945.50;4163417;28;20381;-68
2024/03/23 02:27:55;;;;;;;;;;;;;;;13.96;51.71;98936.44;4163101;28;19913;-69
2024/03/23 02:29:55;;;;;;;;;;;;;;;13.86;51.62;98919.81;4164178;28;19917;-69
2024/03/23 02:31:55;;;;;;;;;;;;;;;13.88;51.74;98932.03;4175234;28;19964;-70
2024/03/23 02:33:56;;;;;;;;;;;;;;;13.80;52.09;98939.41;4175635;28;20007;-69
2024/03/23 02:35:57;;;;;;;;;;;;;;;13.80;51.76;98940.22;4163642;28;20391;-69
2024/03/23 02:37:57;;;;;;;;;;;;;;;13.70;52.21;98940.53;4145296;28;19910;-69
2024/03/23 02:39:58;;;;;;;;;;;;;;;13.93;51.60;98919.88;4144827;28;20112;-69
2024/03/23 02:41:58;;;;;;;;;;;;;;;13.80;52.04;98934.84;4158339;28;19912;-70
2024/03/23 02:43:59;;;;;;;;;;;;;;;13.77;52.03;98937.09;4147046;28;19972;-69
2024/03/23 02:46:00;;;;;;;;;;;;;;;13.73;52.49;98944.69;4146680;28;19917;-69
2024/03/23 02:48:01;;;;;;;;;;;;;;;13.57;52.92;98940.41;4149168;28;20006;-69
2024/03/23 02:50:01;;;;;;;;;;;;;;;13.44;53.03;98946.47;4150873;28;19914;-69
2024/03/23 02:52:01;;;;;;;;;;;;;;;13.43;53.45;98933.25;4162929;28;19909;-69
2024/03/23 02:54:02;;;;;;;;;;;;;;;13.43;53.62;98927.88;4145301;28;19963;-69
2024/03/23 02:56:03;;;;;;;;;;;;;;;13.53;53.93;98926.53;4129303;28;19909;-69
2024/03/23 02:58:03;;;;;;;;;;;;;;;13.45;54.20;98923.97;4158423;28;20017;-69
2024/03/23 03:00:05;;;;;;;;;;;;;;;13.50;54.30;98921.56;4165833;28;19913;-69
2024/03/23 03:02:05;;;;;;;;;;;;;;;13.44;54.14;98924.19;4168014;28;20183;-69
2024/03/23 03:04:05;;;;;;;;;;;;;;;13.43;54.58;98936.75;4172076;28;20011;-69
2024/03/23 03:06:06;;;;;;;;;;;;;;;13.40;56.59;98921.88;4156742;28;19920;-70
2024/03/23 03:08:06;;;;;;;;;;;;;;;13.43;57.35;98923.34;4170798;28;19927;-70
2024/03/23 03:10:08;;;;;;;;;;;;;;;13.31;57.96;98914.09;4179718;28;20433;-69
2024/03/23 03:12:08;;;;;;;;;;;;;;;13.20;58.13;98918.94;4186931;28;19908;-69
2024/03/23 03:14:09;;;;;;;;;;;;;;;13.09;58.12;98914.88;4186323;28;19904;-71
2024/03/23 03:16:10;;;;;;;;;;;;;;;13.13;58.11;98917.19;4188910;28;19931;-69
2024/03/23 03:18:10;;;;;;;;;;;;;;;13.07;58.19;98916.09;4187506;28;19940;-70
2024/03/23 03:20:13;;;;;;;;;;;;;;;13.01;58.88;98911.50;4169779;28;19912;-68
2024/03/23 03:22:13;;;;;;;;;;;;;;;12.88;58.85;98910.31;4190007;28;19916;-70
2024/03/23 03:24:14;;;;;;;;;;;;;;;13.02;59.13;98902.44;4191095;28;19909;-70
2024/03/23 03:26:15;;;;;;;;;;;;;;;12.93;58.98;98913.28;4189499;28;19915;-69
2024/03/23 03:28:15;;;;;;;;;;;;;;;13.06;59.26;98907.22;4188558;28;19908;-73
2024/03/23 03:30:16;;;;;;;;;;;;;;;12.93;59.51;98902.56;4188505;28;19913;-69
2024/03/23 03:32:16;;;;;;;;;;;;;;;12.87;59.88;98916.69;4189218;28;19913;-69
2024/03/23 03:34:17;;;;;;;;;;;;;;;12.99;60.08;98910.84;4177684;28;20336;-69
2024/03/23 03:36:17;;;;;;;;;;;;;;;12.91;59.55;98909.09;4165826;28;20435;-69
2024/03/23 03:38:19;;;;;;;;;;;;;;;12.73;60.29;98922.91;4165863;28;19955;-69
2024/03/23 03:40:19;;;;;;;;;;;;;;;12.74;60.23;98924.59;4165800;28;19909;-70
2024/03/23 03:42:19;;;;;;;;;;;;;;;12.80;60.29;98910.41;4151409;28;19913;-69
2024/03/23 03:44:20;;;;;;;;;;;;;;;12.80;60.06;98911.25;4165755;28;19916;-69
2024/03/23 03:46:20;;;;;;;;;;;;;;;12.64;60.83;98916.81;4165670;28;19937;-69
2024/03/23 03:48:21;;;;;;;;;;;;;;;12.65;60.55;98905.06;4165593;28;19970;-69
2024/03/23 03:50:22;;;;;;;;;;;;;;;12.69;60.41;98892.97;4165313;28;19909;-69
2024/03/23 03:52:22;;;;;;;;;;;;;;;12.80;60.16;98888.97;4165765;28;20416;-69
2024/03/23 03:54:22;;;;;;;;;;;;;;;12.77;60.23;98895.53;4165711;28;19915;-70
2024/03/23 03:56:23;;;;;;;;;;;;;;;12.73;60.37;98896.91;4165088;28;20465;-69
2024/03/23 03:58:23;;;;;;;;;;;;;;;12.83;60.08;98899.31;4165883;28;19909;-69
2024/03/23 04:00:23;;;;;;;;;;;;;;;12.85;60.31;98897.25;4165929;28;20385;-70
2024/03/23 04:02:24;;;;;;;;;;;;;;;12.96;60.04;98890.59;4175803;28;19963;-70
2024/03/23 04:04:24;;;;;;;;;;;;;;;12.80;61.14;98870.19;4180598;28;19916;-69
2024/03/23 04:06:25;;;;;;;;;;;;;;;12.92;60.65;98868.69;4165653;28;19945;-70
2024/03/23 04:08:25;;;;;;;;;;;;;;;13.05;60.52;98873.38;4165146;28;19956;-70
2024/03/23 04:10:26;;;;;;;;;;;;;;;13.15;60.42;98872.22;4166123;28;19913;-69
2024/03/23 04:12:26;;;;;;;;;;;;;;;13.25;60.44;98878.13;4166965;28;19908;-69
2024/03/23 04:14:27;;;;;;;;;;;;;;;13.37;60.22;98870.38;4163763;28;19912;-69
2024/03/23 04:16:28;;;;;;;;;;;;;;;13.49;60.17;98868.03;4175565;28;19909;-70
2024/03/23 04:18:28;;;;;;;;;;;;;;;13.64;59.77;98873.34;4177117;28;19943;-70
2024/03/23 04:20:29;;;;;;;;;;;;;;;13.61;60.21;98862.97;4166461;28;20376;-70
2024/03/23 04:22:29;;;;;;;;;;;;;;;13.80;60.25;98856.94;4165152;28;19943;-70
2024/03/23 04:24:29;;;;;;;;;;;;;;;13.91;60.01;98862.81;4165082;28;20353;-70
2024/03/23 04:26:30;;;;;;;;;;;;;;;13.88;60.50;98861.34;4164757;28;20368;-69
2024/03/23 04:28:30;;;;;;;;;;;;;;;13.93;60.46;98863.44;4165159;28;19999;-72
2024/03/23 04:30:31;;;;;;;;;;;;;;;13.81;61.28;98877.41;4164961;28;19999;-69
2024/03/23 04:32:32;;;;;;;;;;;;;;;13.93;61.67;98883.09;4170627;28;19945;-70
2024/03/23 04:34:32;;;;;;;;;;;;;;;13.81;62.21;98877.41;4180343;28;19909;-70
2024/03/23 04:36:33;;;;;;;;;;;;;;;13.80;62.99;98874.94;4178809;28;19969;-69
2024/03/23 04:38:33;;;;;;;;;;;;;;;13.65;63.62;98875.81;4177185;28;19980;-73
2024/03/23 04:40:33;;;;;;;;;;;;;;;13.52;64.48;98889.16;4177900;28;19920;-70
2024/03/23 04:42:34;;;;;;;;;;;;;;;13.70;64.33;98875.25;4173029;28;19948;-70
2024/03/23 04:44:34;;;;;;;;;;;;;;;13.62;64.43;98880.75;4174409;28;20357;-69
2024/03/23 04:46:35;;;;;;;;;;;;;;;13.59;64.89;98867.75;4171401;28;20200;-70
2024/03/23 04:48:36;;;;;;;;;;;;;;;13.63;65.02;98866.31;4171506;28;19909;-70
2024/03/23 04:50:36;;;;;;;;;;;;;;;13.53;64.87;98864.78;4167302;28;20270;-70
2024/03/23 04:52:36;;;;;;;;;;;;;;;13.62;64.68;98860.13;4164386;28;19967;-70
2024/03/23 04:54:37;;;;;;;;;;;;;;;13.62;64.77;98867.31;4164119;28;19909;-70
2024/03/23 04:56:37;;;;;;;;;;;;;;;13.68;64.57;98878.13;4165332;28;19913;-69
2024/03/23 04:58:37;;;;;;;;;;;;;;;13.51;65.47;98882.94;4164464;28;19910;-70
2024/03/23 05:00:38;;;;;;;;;;;;;;;13.71;64.72;98883.13;4164737;28;20564;-70
2024/03/23 05:02:38;;;;;;;;;;;;;;;13.73;64.52;98885.63;4164437;28;19963;-69
2024/03/23 05:04:40;;;;;;;;;;;;;;;13.67;64.52;98872.97;4164317;28;19959;-69
2024/03/23 05:06:40;;;;;;;;;;;;;;;13.52;65.02;98878.41;4163824;28;20254;-70
2024/03/23 05:08:41;;;;;;;;;;;;;;;13.53;65.56;98875.53;4164069;28;19963;-70
2024/03/23 05:10:41;;;;;;;;;;;;;;;13.45;65.74;98883.72;4162975;28;20395;-69
2024/03/23 05:12:42;;;;;;;;;;;;;;;13.43;65.75;98879.56;4163891;28;19908;-69
2024/03/23 05:14:42;;;;;;;;;;;;;;;13.56;65.21;98877.84;4163928;28;19909;-69
2024/03/23 05:16:42;;;;;;;;;;;;;;;13.56;65.01;98877.84;4162390;28;19916;-70
2024/03/23 05:18:43;;;;;;;;;;;;;;;13.21;65.08;98887.56;4163760;28;19936;-70
2024/03/23 05:20:44;;;;;;;;;;;;;;;13.06;64.78;98890.28;4163815;28;19909;-69
2024/03/23 05:22:44;;;;;;;;;;;;;;;13.17;64.97;98897.84;4163960;28;19952;-69
2024/03/23 05:24:45;;;;;;;;;;;;;;;13.18;65.36;98899.53;4164146;28;19909;-69
2024/03/23 05:26:45;;;;;;;;;;;;;;;13.23;65.40;98905.13;4162198;28;19983;-69
2024/03/23 05:28:45;;;;;;;;;;;;;;;13.18;65.89;98915.63;4164029;28;19909;-70
2024/03/23 05:30:56;;;;;;;;;;;;;;;13.20;65.81;98904.69;4164359;28;19909;-69
2024/03/23 05:32:57;;;;;;;;;;;;;;;12.95;65.94;98911.22;4171020;28;19952;-70
2024/03/23 05:34:57;;;;;;;;;;;;;;;12.82;65.28;98904.84;4175789;28;19920;-69
2024/03/23 05:36:57;;;;;;;;;;;;;;;12.76;64.27;98907.28;4163312;28;19909;-70
2024/03/23 05:38:58;;;;;;;;;;;;;;;12.79;63.95;98901.56;4163426;28;20504;-69
2024/03/23 05:40:59;;;;;;;;;;;;;;;12.74;63.40;98905.81;4164059;28;20430;-70
2024/03/23 05:42:59;;;;;;;;;;;;;;;12.90;62.94;98900.22;4163197;28;19909;-69
2024/03/23 05:44:59;;;;;;;;;;;;;;;12.90;62.74;98905.59;4163649;28;20373;-70
2024/03/23 05:47:00;;;;;;;;;;;;;;;12.88;63.00;98921.03;4163575;28;19909;-70
2024/03/23 05:49:01;;;;;;;;;;;;;;;12.61;63.08;98912.66;4163126;28;19916;-70
2024/03/23 05:51:01;;;;;;;;;;;;;;;12.63;62.94;98913.31;4158399;28;20404;-69
2024/03/23 05:53:04;;;;;;;;;;;;;;;12.68;62.77;98919.94;4163956;28;19909;-70
2024/03/23 05:55:05;;;;;;;;;;;;;;;12.85;61.97;98924.09;4166779;28;20344;-69
2024/03/23 05:57:08;;;;;;;;;;;;;;;12.97;61.34;98942.38;4165394;28;19909;-69
2024/03/23 05:59:09;;;;;;;;;;;;;;;12.82;61.69;98945.94;4162485;28;19908;-69
2024/03/23 06:01:10;;;;;;;;;;;;;;;12.79;61.54;98959.72;4162076;28;20610;-68
2024/03/23 06:03:10;;;;;;;;;;;;;;;12.80;61.42;98964.88;4162173;28;20425;-69
2024/03/23 06:05:11;;;;;;;;;;;;;;;12.33;62.02;98972.25;4163297;28;19959;-69
2024/03/23 06:07:13;;;;;;;;;;;;;;;12.73;61.50;98960.47;4162064;28;19909;-69
2024/03/23 06:09:14;;;;;;;;;;;;;;;12.75;61.67;98961.94;4163397;28;19909;-69
2024/03/23 06:11:15;;;;;;;;;;;;;;;12.68;62.29;98984.28;4163406;28;20289;-70
2024/03/23 06:13:16;;;;;;;;;;;;;;;12.60;62.23;98982.56;4163001;28;19971;-70
2024/03/23 06:15:17;;;;;;;;;;;;;;;12.43;62.86;98993.41;4163086;28;19917;-70
2024/03/23 06:17:17;;;;;;;;;;;;;;;12.37;62.88;98994.16;4162383;28;19915;-70
2024/03/23 06:19:18;;;;;;;;;;;;;;;12.15;63.76;98998.56;4161520;28;20087;-70
2024/03/23 06:21:18;;;;;;;;;;;;;;;12.46;62.97;98994.94;4160516;28;19913;-69
2024/03/23 06:23:20;;;;;;;;;;;;;;;12.45;63.18;98994.06;4145558;28;20435;-70
2024/03/23 06:25:20;;;;;;;;;;;;;;;12.29;63.59;99003.09;4163576;28;19955;-71
2024/03/23 06:27:20;;;;;;;;;;;;;;;12.14;63.13;99000.38;4162273;28;19909;-70
2024/03/23 06:29:21;;;;;;;;;;;;;;;12.24;62.37;98994.78;4162677;28;20003;-68
2024/03/23 06:31:21;;;;;;;;;;;;;;;12.24;62.14;99001.97;4163013;28;20391;-71
2024/03/23 06:33:22;;;;;;;;;;;;;;;12.24;62.06;99008.19;4161140;28;20575;-69
2024/03/23 06:35:22;;;;;;;;;;;;;;;12.28;61.93;99022.88;4145484;28;19972;-70
2024/03/23 06:37:22;;;;;;;;;;;;;;;11.96;62.27;99035.50;4162950;28;19909;-70
2024/03/23 06:39:23;;;;;;;;;;;;;;;11.99;61.84;99042.38;4163308;28;20000;-70
2024/03/23 06:41:23;;;;;;;;;;;;;;;11.86;62.80;99046.44;4162695;28;19913;-70
2024/03/23 06:43:25;;;;;;;;;;;;;;;11.91;62.08;99043.22;4166266;28;19916;-70
2024/03/23 06:45:25;;;;;;;;;;;;;;;11.85;62.24;99027.88;4170202;28;19909;-71
2024/03/23 06:47:26;;;;;;;;;;;;;;;12.03;61.77;99043.69;4170684;28;19917;-70
2024/03/23 06:49:26;;;;;;;;;;;;;;;12.05;61.53;99064.94;4164133;28;19963;-70
2024/03/23 06:51:26;;;;;;;;;;;;;;;11.51;61.80;99085.31;4163071;28;19955;-70
2024/03/23 06:53:29;;;;;;;;;;;;;;;11.60;60.48;99088.75;4172830;28;19904;-70
2024/03/23 06:55:29;;;;;;;;;;;;;;;11.80;59.37;99105.25;4164265;28;19909;-71
2024/03/23 06:57:30;;;;;;;;;;;;;;;11.50;59.68;99115.75;4165791;28;19916;-70
2024/03/23 06:59:30;;;;;;;;;;;;;;;11.50;60.51;99115.75;4165445;28;19912;-71
2024/03/23 07:01:30;;;;;;;;;;;;;;;11.57;60.23;99127.41;4173313;28;19920;-71
2024/03/23 07:03:31;;;;;;;;;;;;;;;11.34;60.86;99138.03;4177407;28;19916;-71
2024/03/23 07:05:31;;;;;;;;;;;;;;;10.92;61.83;99153.34;4184501;28;19997;-72
2024/03/23 07:07:31;;;;;;;;;;;;;;;11.11;60.43;99140.59;4166588;28;19916;-70
2024/03/23 07:09:32;;;;;;;;;;;;;;;11.13;60.57;99149.31;4165378;28;19962;-71
2024/03/23 07:11:32;;;;;;;;;;;;;;;11.28;60.50;99150.25;4165008;28;19995;-69
2024/03/23 07:13:32;;;;;;;;;;;;;;;11.11;60.88;99159.34;4166218;28;20331;-70
2024/03/23 07:15:34;;;;;;;;;;;;;;;10.87;60.96;99169.03;4165172;28;19909;-71
2024/03/23 07:17:35;;;;;;;;;;;;;;;10.90;61.30;99168.72;4171847;28;19913;-70
2024/03/23 07:19:35;;;;;;;;;;;;;;;10.83;61.62;99173.06;4172271;28;20376;-70
2024/03/23 07:21:35;;;;;;;;;;;;;;;10.92;61.63;99185.44;4176808;28;19913;-70
2024/03/23 07:23:36;;;;;;;;;;;;;;;10.87;61.52;99193.97;4169337;28;19909;-69
2024/03/23 07:25:36;;;;;;;;;;;;;;;10.82;61.83;99198.13;4168262;28;19992;-72
2024/03/23 07:27:37;;;;;;;;;;;;;;;10.61;62.04;99208.31;4167451;28;19974;-71
2024/03/23 07:29:38;;;;;;;;;;;;;;;10.59;62.61;99214.81;4173901;28;20464;-71
2024/03/23 07:31:38;;;;;;;;;;;;;;;10.40;62.32;99218.63;4165685;28;19947;-69
2024/03/23 07:33:43;;;;;;;;;;;;;;;10.32;62.89;99226.59;4164355;28;19909;-70
2024/03/23 07:35:43;;;;;;;;;;;;;;;10.29;62.99;99230.44;4165242;28;19913;-68
2024/03/23 07:37:44;;;;;;;;;;;;;;;10.45;62.79;99235.84;4164475;28;19909;-68
2024/03/23 07:39:44;;;;;;;;;;;;;;;10.51;61.83;99223.69;4165026;28;19967;-69
2024/03/23 07:41:45;;;;;;;;;;;;;;;10.56;62.19;99225.84;4165356;28;19917;-69
2024/03/23 07:43:46;;;;;;;;;;;;;;;10.72;62.11;99225.03;4165649;28;20011;-68
2024/03/23 07:45:53;;;;;;;;;;;;;;;10.61;61.61;99240.41;4165183;28;20064;-69
2024/03/23 07:47:53;;;;;;;;;;;;;;;10.69;61.72;99236.06;4166356;28;19915;-69
2024/03/23 07:49:53;;;;;;;;;;;;;;;10.64;62.06;99239.22;4150222;28;20398;-70
2024/03/23 07:51:54;;;;;;;;;;;;;;;10.85;62.29;99246.75;4176054;28;19920;-70
2024/03/23 07:53:54;;;;;;;;;;;;;;;10.71;62.94;99255.44;4179122;28;19988;-71
2024/03/23 07:55:59;;;;;;;;;;;;;;;10.77;62.70;99263.63;4179617;28;19909;-71
2024/03/23 07:57:59;;;;;;;;;;;;;;;10.74;63.43;99255.09;4177927;28;19909;-70
2024/03/23 07:59:59;;;;;;;;;;;;;;;10.88;62.66;99257.13;4178002;28;19959;-70
2024/03/23 08:02:00;;;;;;;;;;;;;;;10.56;63.98;99273.97;4171861;28;20013;-70
2024/03/23 08:04:01;;;;;;;;;;;;;;;10.60;63.67;99278.81;4165752;28;19924;-69
2024/03/23 08:06:10;;;;;;;;;;;;;;;10.39;63.12;99297.94;4164159;28;20067;-69
2024/03/23 08:08:11;;;;;;;;;;;;;;;10.56;61.73;99298.00;4164530;28;19917;-69
2024/03/23 08:10:12;;;;;;;;;;;;;;;10.42;61.33;99294.97;4164440;28;19916;-69
2024/03/23 08:12:13;;;;;;;;;;;;;;;10.22;60.98;99289.03;4164589;28;19959;-69
2024/03/23 08:14:13;;;;;;;;;;;;;;;10.52;60.39;99310.00;4164332;28;19909;-70
2024/03/23 08:16:13;;;;;;;;;;;;;;;10.43;60.65;99319.84;4164389;28;19916;-70
2024/03/23 08:18:17;;;;;;;;;;;;;;;10.38;60.45;99315.00;4164932;28;19915;-72
2024/03/23 08:20:17;;;;;;;;;;;;;;;10.49;60.42;99331.72;4161781;28;20312;-69
2024/03/23 08:22:17;;;;;;;;;;;;;;;10.63;60.55;99322.25;4164304;28;19913;-69
2024/03/23 08:24:19;;;;;;;;;;;;;;;10.98;59.36;99326.50;4164582;28;20004;-69
2024/03/23 08:26:19;;;;;;;;;;;;;;;11.02;59.69;99343.88;4164223;28;19940;-70
2024/03/23 08:28:20;;;;;;;;;;;;;;;11.11;59.47;99341.22;4164457;28;20265;-70
2024/03/23 08:30:20;;;;;;;;;;;;;;;10.84;58.72;99348.53;4164728;28;19931;-69
2024/03/23 08:32:20;;;;;;;;;;;;;;;10.50;58.01;99355.63;4165791;28;19909;-70
2024/03/23 08:34:22;;;;;;;;;;;;;;;10.27;58.18;99355.31;4171842;28;19923;-69
2024/03/23 08:36:23;;;;;;;;;;;;;;;10.19;57.76;99363.28;4178062;28;19916;-69
2024/03/23 08:38:25;;;;;;;;;;;;;;;10.36;57.67;99373.06;4163716;28;19943;-69
2024/03/23 08:40:25;;;;;;;;;;;;;;;10.24;57.82;99379.66;4163143;28;19909;-69
2024/03/23 08:42:25;;;;;;;;;;;;;;;10.15;57.91;99390.31;4164826;28;19920;-70
2024/03/23 08:44:26;;;;;;;;;;;;;;;10.14;57.61;99379.81;4172492;28;20684;-69
2024/03/23 08:46:27;;;;;;;;;;;;;;;10.29;57.16;99380.06;4164120;28;20671;-69
2024/03/23 08:48:28;;;;;;;;;;;;;;;10.54;56.79;99394.38;4164441;28;19915;-69
2024/03/23 08:50:28;;;;;;;;;;;;;;;10.64;55.69;99394.25;4162870;28;19941;-69
2024/03/23 08:52:29;;;;;;;;;;;;;;;10.87;55.74;99409.69;4164354;28;19955;-69
2024/03/23 08:54:31;;;;;;;;;;;;;;;10.43;55.37;99411.53;4163340;28;19909;-69
2024/03/23 08:56:31;;;;;;;;;;;;;;;10.87;54.12;99415.88;4146701;28;19913;-69
2024/03/23 08:58:32;;;;;;;;;;;;;;;10.68;54.22;99400.94;4164330;28;19992;-69
2024/03/23 09:00:33;;;;;;;;;;;;;;;10.64;54.16;99394.25;4164728;28;19920;-69
2024/03/23 09:02:33;;;;;;;;;;;;;;;10.91;53.25;99401.19;4167699;28;19917;-71
2024/03/23 09:04:40;;;;;;;;;;;;;;;10.56;54.09;99402.25;4175221;28;19917;-70
2024/03/23 09:06:42;;;;;;;;;;;;;;;10.80;53.90;99409.53;4176647;28;19913;-69
2024/03/23 09:08:42;;;;;;;;;;;;;;;11.26;52.60;99409.13;4163625;28;19979;-69
2024/03/23 09:10:43;;;;;;;;;;;;;;;11.43;51.44;99409.16;4163913;28;19914;-69
2024/03/23 09:12:44;;;;;;;;;;;;;;;11.53;50.63;99413.34;4164037;28;20357;-70
2024/03/23 09:14:44;;;;;;;;;;;;;;;11.69;50.27;99414.34;4162654;28;20006;-69
2024/03/23 09:16:44;;;;;;;;;;;;;;;11.49;49.63;99411.16;4146865;28;19914;-70
2024/03/23 09:18:45;;;;;;;;;;;;;;;12.45;48.20;99409.56;4163787;28;19955;-70
2024/03/23 09:20:45;;;;;;;;;;;;;;;12.14;47.96;99417.50;4162370;28;19956;-69
2024/03/23 09:22:47;;;;;;;;;;;;;;;12.00;48.03;99425.22;4163591;28;19933;-69
2024/03/23 09:24:48;;;;;;;;;;;;;;;12.36;47.46;99425.84;4164123;28;19999;-70
2024/03/23 09:26:48;;;;;;;;;;;;;;;13.00;46.26;99416.88;4164151;28;20422;-70
2024/03/23 09:28:49;;;;;;;;;;;;;;;13.30;44.77;99411.66;4162561;28;19959;-70
2024/03/23 09:30:49;;;;;;;;;;;;;;;13.48;44.48;99404.19;4146774;28;19915;-70
2024/03/23 09:32:49;;;;;;;;;;;;;;;13.67;45.15;99399.34;4163895;28;19909;-70
2024/03/23 09:34:49;;;;;;;;;;;;;;;13.68;44.19;99403.69;4162578;28;19909;-69
2024/03/23 09:36:53;;;;;;;;;;;;;;;13.60;44.25;99411.84;4163672;28;19952;-70
2024/03/23 09:38:53;;;;;;;;;;;;;;;12.67;44.77;99422.38;4163333;28;20246;-70
2024/03/23 09:40:54;;;;;;;;;;;;;;;12.64;43.96;99424.41;4163577;28;19928;-70
2024/03/23 09:42:55;;;;;;;;;;;;;;;13.08;43.56;99430.25;4146074;28;20012;-70
2024/03/23 09:44:57;;;;;;;;;;;;;;;13.73;42.78;99429.00;4164071;28;19916;-70
2024/03/23 09:46:58;;;;;;;;;;;;;;;13.69;43.28;99427.69;4173105;28;19921;-71
2024/03/23 09:48:58;;;;;;;;;;;;;;;13.15;44.66;99422.34;4177071;28;20215;-70
2024/03/23 09:50:59;;;;;;;;;;;;;;;13.56;44.04;99417.56;4163286;28;19955;-70
2024/03/23 09:52:59;;;;;;;;;;;;;;;14.40;42.12;99404.19;4163759;28;20530;-70
2024/03/23 09:54:59;;;;;;;;;;;;;;;14.27;42.53;99412.88;4163661;28;19912;-70
2024/03/23 09:57:00;;;;;;;;;;;;;;;14.47;41.73;99400.53;4163346;28;19909;-69
2024/03/23 09:59:03;;;;;;;;;;;;;;;14.20;42.20;99410.94;4163249;28;20365;-70
2024/03/23 10:01:04;;;;;;;;;;;;;;;13.71;43.00;99417.59;4163983;28;19909;-69
2024/03/23 10:03:06;;;;;;;;;;;;;;;13.26;43.44;99417.38;4146058;28;19936;-69
2024/03/23 10:05:19;;;;;;;;;;;;;;;13.43;42.75;99414.63;4162555;28;19909;-70
2024/03/23 10:07:21;;;;;;;;;;;;;;;13.11;43.46;99424.53;4162958;28;19909;-69
2024/03/23 10:09:22;;;;;;;;;;;;;;;12.33;44.73;99437.72;4166418;28;20364;-69
2024/03/23 10:11:22;;;;;;;;;;;;;;;12.40;45.33;99445.94;4149220;28;19909;-69
2024/03/23 10:13:29;;;;;;;;;;;;;;;12.32;45.66;99452.97;4163571;28;19909;-69
2024/03/23 10:15:29;;;;;;;;;;;;;;;12.33;45.51;99443.94;4163324;28;20393;-69
2024/03/23 10:17:30;;;;;;;;;;;;;;;11.88;45.55;99450.66;4163570;28;19915;-69
2024/03/23 10:19:31;;;;;;;;;;;;;;;11.85;45.92;99445.63;4162588;28;19920;-68
2024/03/23 10:21:31;;;;;;;;;;;;;;;11.80;46.44;99456.03;4161444;28;19920;-69
2024/03/23 10:23:32;;;;;;;;;;;;;;;11.61;45.49;99458.03;4166639;28;19909;-69
2024/03/23 10:25:33;;;;;;;;;;;;;;;11.73;45.38;99446.97;4173343;28;19911;-70
2024/03/23 10:27:33;;;;;;;;;;;;;;;11.52;45.90;99451.00;4168045;28;19909;-69
2024/03/23 10:29:33;;;;;;;;;;;;;;;11.71;45.93;99455.19;4168157;28;19916;-69